sensor_id;sensor_type;location;lat;lon;timestamp;P1;durP1;ratioP1;P2;durP2;ratioP2
20865;SDS011;10593;48.398;10.698;2023-06-19T00:02:08;5.73;;;5.33;;
20865;SDS011;10593;48.398;10.698;2023-06-19T00:04:34;6.40;;;5.80;;
20865;SDS011;10593;48.398;10.698;2023-06-19T00:07:00;5.80;;;5.40;;
20865;SDS011;10593;48.398;10.698;2023-06-19T00:09:26;5.60;;;5.10;;
20865;SDS011;10593;48.398;10.698;2023-06-19T00:11:52;5.53;;;5.13;;
20865;SDS011;10593;48.398;10.698;2023-06-19T00:14:17;5.67;;;5.27;;
20865;SDS011;10593;48.398;10.698;2023-06-19T00:16:43;5.73;;;5.27;;
20865;SDS011;10593;48.398;10.698;2023-06-19T00:19:09;5.23;;;4.83;;
20865;SDS011;10593;48.398;10.698;2023-06-19T00:21:36;5.93;;;5.43;;
20865;SDS011;10593;48.398;10.698;2023-06-19T00:24:03;5.20;;;4.80;;
20865;SDS011;10593;48.398;10.698;2023-06-19T00:26:29;5.57;;;5.17;;
20865;SDS011;10593;48.398;10.698;2023-06-19T00:28:55;6.17;;;5.67;;
20865;SDS011;10593;48.398;10.698;2023-06-19T00:31:21;5.27;;;4.87;;
20865;SDS011;10593;48.398;10.698;2023-06-19T00:33:47;5.43;;;5.03;;
20865;SDS011;10593;48.398;10.698;2023-06-19T00:36:16;5.30;;;4.90;;
20865;SDS011;10593;48.398;10.698;2023-06-19T00:38:45;5.70;;;5.30;;
20865;SDS011;10593;48.398;10.698;2023-06-19T00:41:12;4.93;;;4.63;;
20865;SDS011;10593;48.398;10.698;2023-06-19T00:43:40;5.53;;;5.13;;
20865;SDS011;10593;48.398;10.698;2023-06-19T00:46:06;5.60;;;5.17;;
20865;SDS011;10593;48.398;10.698;2023-06-19T00:48:32;7.53;;;5.30;;
20865;SDS011;10593;48.398;10.698;2023-06-19T00:50:59;5.70;;;5.30;;
20865;SDS011;10593;48.398;10.698;2023-06-19T00:53:25;5.90;;;5.40;;
20865;SDS011;10593;48.398;10.698;2023-06-19T00:55:53;5.57;;;5.13;;
20865;SDS011;10593;48.398;10.698;2023-06-19T00:58:21;6.23;;;5.67;;
20865;SDS011;10593;48.398;10.698;2023-06-19T01:00:47;5.83;;;5.33;;
20865;SDS011;10593;48.398;10.698;2023-06-19T01:03:14;5.60;;;5.10;;
20865;SDS011;10593;48.398;10.698;2023-06-19T01:05:41;6.03;;;5.50;;
20865;SDS011;10593;48.398;10.698;2023-06-19T01:10:54;5.90;;;5.40;;
20865;SDS011;10593;48.398;10.698;2023-06-19T01:13:27;6.07;;;5.57;;
20865;SDS011;10593;48.398;10.698;2023-06-19T01:16:10;6.50;;;5.77;;
20865;SDS011;10593;48.398;10.698;2023-06-19T01:18:37;5.57;;;5.07;;
20865;SDS011;10593;48.398;10.698;2023-06-19T01:21:13;6.00;;;5.43;;
20865;SDS011;10593;48.398;10.698;2023-06-19T01:23:41;5.70;;;5.20;;
20865;SDS011;10593;48.398;10.698;2023-06-19T01:26:08;6.93;;;5.53;;
20865;SDS011;10593;48.398;10.698;2023-06-19T01:28:39;6.17;;;5.67;;
20865;SDS011;10593;48.398;10.698;2023-06-19T01:33:58;5.90;;;5.30;;
20865;SDS011;10593;48.398;10.698;2023-06-19T01:36:27;5.80;;;5.30;;
20865;SDS011;10593;48.398;10.698;2023-06-19T01:38:54;5.50;;;5.10;;
20865;SDS011;10593;48.398;10.698;2023-06-19T01:41:22;5.43;;;5.03;;
20865;SDS011;10593;48.398;10.698;2023-06-19T01:43:50;6.30;;;5.80;;
20865;SDS011;10593;48.398;10.698;2023-06-19T01:46:17;6.50;;;6.00;;
20865;SDS011;10593;48.398;10.698;2023-06-19T01:48:43;5.97;;;5.47;;
20865;SDS011;10593;48.398;10.698;2023-06-19T01:51:09;5.50;;;5.10;;
20865;SDS011;10593;48.398;10.698;2023-06-19T01:53:36;6.63;;;6.07;;
20865;SDS011;10593;48.398;10.698;2023-06-19T01:56:01;6.97;;;5.23;;
20865;SDS011;10593;48.398;10.698;2023-06-19T01:58:27;5.97;;;5.50;;
20865;SDS011;10593;48.398;10.698;2023-06-19T02:00:53;5.83;;;5.33;;
20865;SDS011;10593;48.398;10.698;2023-06-19T02:03:20;5.70;;;5.30;;
20865;SDS011;10593;48.398;10.698;2023-06-19T02:05:46;6.27;;;5.77;;
20865;SDS011;10593;48.398;10.698;2023-06-19T02:08:12;5.63;;;5.23;;
20865;SDS011;10593;48.398;10.698;2023-06-19T02:10:37;6.07;;;5.43;;
20865;SDS011;10593;48.398;10.698;2023-06-19T02:13:03;6.00;;;5.40;;
20865;SDS011;10593;48.398;10.698;2023-06-19T02:15:29;6.67;;;6.07;;
20865;SDS011;10593;48.398;10.698;2023-06-19T02:17:57;6.10;;;5.60;;
20865;SDS011;10593;48.398;10.698;2023-06-19T02:20:24;6.57;;;5.63;;
20865;SDS011;10593;48.398;10.698;2023-06-19T02:22:50;6.07;;;5.57;;
20865;SDS011;10593;48.398;10.698;2023-06-19T02:25:17;5.47;;;5.07;;
20865;SDS011;10593;48.398;10.698;2023-06-19T02:27:43;6.30;;;5.70;;
20865;SDS011;10593;48.398;10.698;2023-06-19T02:30:09;6.23;;;5.73;;
20865;SDS011;10593;48.398;10.698;2023-06-19T02:32:36;5.80;;;5.30;;
20865;SDS011;10593;48.398;10.698;2023-06-19T02:35:02;5.90;;;5.50;;
20865;SDS011;10593;48.398;10.698;2023-06-19T02:37:30;6.17;;;5.53;;
20865;SDS011;10593;48.398;10.698;2023-06-19T02:39:56;5.87;;;5.40;;
20865;SDS011;10593;48.398;10.698;2023-06-19T02:42:23;5.53;;;5.13;;
20865;SDS011;10593;48.398;10.698;2023-06-19T02:44:48;5.90;;;5.30;;
20865;SDS011;10593;48.398;10.698;2023-06-19T02:47:14;5.80;;;5.30;;
20865;SDS011;10593;48.398;10.698;2023-06-19T02:49:40;5.77;;;5.37;;
20865;SDS011;10593;48.398;10.698;2023-06-19T02:52:05;5.77;;;5.17;;
20865;SDS011;10593;48.398;10.698;2023-06-19T02:54:32;6.40;;;5.90;;
20865;SDS011;10593;48.398;10.698;2023-06-19T02:56:58;6.03;;;5.53;;
20865;SDS011;10593;48.398;10.698;2023-06-19T02:59:24;6.07;;;5.57;;
20865;SDS011;10593;48.398;10.698;2023-06-19T03:01:50;6.20;;;5.60;;
20865;SDS011;10593;48.398;10.698;2023-06-19T03:04:16;7.70;;;5.90;;
20865;SDS011;10593;48.398;10.698;2023-06-19T03:06:42;6.13;;;5.63;;
20865;SDS011;10593;48.398;10.698;2023-06-19T03:09:08;5.67;;;5.17;;
20865;SDS011;10593;48.398;10.698;2023-06-19T03:11:40;6.13;;;5.63;;
20865;SDS011;10593;48.398;10.698;2023-06-19T03:14:06;5.87;;;5.40;;
20865;SDS011;10593;48.398;10.698;2023-06-19T03:16:34;5.70;;;5.30;;
20865;SDS011;10593;48.398;10.698;2023-06-19T03:19:00;5.90;;;5.50;;
20865;SDS011;10593;48.398;10.698;2023-06-19T03:21:26;6.00;;;5.50;;
20865;SDS011;10593;48.398;10.698;2023-06-19T03:23:52;6.17;;;5.67;;
20865;SDS011;10593;48.398;10.698;2023-06-19T03:26:18;6.63;;;6.13;;
20865;SDS011;10593;48.398;10.698;2023-06-19T03:28:45;6.40;;;5.83;;
20865;SDS011;10593;48.398;10.698;2023-06-19T03:31:14;6.60;;;6.10;;
20865;SDS011;10593;48.398;10.698;2023-06-19T03:33:40;6.13;;;5.63;;
20865;SDS011;10593;48.398;10.698;2023-06-19T03:36:06;6.53;;;5.97;;
20865;SDS011;10593;48.398;10.698;2023-06-19T03:38:32;6.00;;;5.50;;
20865;SDS011;10593;48.398;10.698;2023-06-19T03:40:58;6.13;;;5.57;;
20865;SDS011;10593;48.398;10.698;2023-06-19T03:43:24;6.67;;;6.17;;
20865;SDS011;10593;48.398;10.698;2023-06-19T03:45:49;6.63;;;6.13;;
20865;SDS011;10593;48.398;10.698;2023-06-19T03:48:15;6.77;;;6.27;;
20865;SDS011;10593;48.398;10.698;2023-06-19T03:50:42;6.93;;;6.33;;
20865;SDS011;10593;48.398;10.698;2023-06-19T03:53:08;9.37;;;6.77;;
20865;SDS011;10593;48.398;10.698;2023-06-19T03:55:34;6.67;;;6.07;;
20865;SDS011;10593;48.398;10.698;2023-06-19T03:58:00;7.90;;;6.40;;
20865;SDS011;10593;48.398;10.698;2023-06-19T04:00:26;6.60;;;6.10;;
20865;SDS011;10593;48.398;10.698;2023-06-19T04:02:51;6.83;;;6.33;;
20865;SDS011;10593;48.398;10.698;2023-06-19T04:05:17;6.83;;;6.33;;
20865;SDS011;10593;48.398;10.698;2023-06-19T04:07:44;6.80;;;6.13;;
20865;SDS011;10593;48.398;10.698;2023-06-19T04:10:10;6.67;;;6.07;;
20865;SDS011;10593;48.398;10.698;2023-06-19T04:12:38;6.77;;;6.13;;
20865;SDS011;10593;48.398;10.698;2023-06-19T04:15:05;7.07;;;6.37;;
20865;SDS011;10593;48.398;10.698;2023-06-19T04:17:32;8.00;;;5.90;;
20865;SDS011;10593;48.398;10.698;2023-06-19T04:19:58;6.13;;;5.63;;
20865;SDS011;10593;48.398;10.698;2023-06-19T04:22:24;7.40;;;6.70;;
20865;SDS011;10593;48.398;10.698;2023-06-19T04:24:49;6.73;;;6.23;;
20865;SDS011;10593;48.398;10.698;2023-06-19T04:27:18;6.47;;;5.97;;
20865;SDS011;10593;48.398;10.698;2023-06-19T04:29:43;6.53;;;6.03;;
20865;SDS011;10593;48.398;10.698;2023-06-19T04:32:09;6.40;;;5.90;;
20865;SDS011;10593;48.398;10.698;2023-06-19T04:34:40;7.13;;;6.53;;
20865;SDS011;10593;48.398;10.698;2023-06-19T04:37:11;7.20;;;6.50;;
20865;SDS011;10593;48.398;10.698;2023-06-19T04:39:37;8.20;;;6.10;;
20865;SDS011;10593;48.398;10.698;2023-06-19T04:42:03;6.37;;;5.90;;
20865;SDS011;10593;48.398;10.698;2023-06-19T04:44:29;6.50;;;5.90;;
20865;SDS011;10593;48.398;10.698;2023-06-19T04:46:58;7.30;;;6.60;;
20865;SDS011;10593;48.398;10.698;2023-06-19T04:49:29;7.53;;;6.37;;
20865;SDS011;10593;48.398;10.698;2023-06-19T04:51:56;6.93;;;6.33;;
20865;SDS011;10593;48.398;10.698;2023-06-19T04:54:22;7.20;;;6.70;;
20865;SDS011;10593;48.398;10.698;2023-06-19T04:56:48;6.53;;;6.03;;
20865;SDS011;10593;48.398;10.698;2023-06-19T04:59:14;6.97;;;6.37;;
20865;SDS011;10593;48.398;10.698;2023-06-19T05:01:42;8.30;;;6.90;;
20865;SDS011;10593;48.398;10.698;2023-06-19T05:04:09;7.43;;;6.73;;
20865;SDS011;10593;48.398;10.698;2023-06-19T05:06:36;6.97;;;6.37;;
20865;SDS011;10593;48.398;10.698;2023-06-19T05:09:02;6.87;;;6.27;;
20865;SDS011;10593;48.398;10.698;2023-06-19T05:11:28;7.77;;;6.90;;
20865;SDS011;10593;48.398;10.698;2023-06-19T05:13:53;6.50;;;5.90;;
20865;SDS011;10593;48.398;10.698;2023-06-19T05:16:19;7.37;;;6.47;;
20865;SDS011;10593;48.398;10.698;2023-06-19T05:18:45;7.10;;;6.40;;
20865;SDS011;10593;48.398;10.698;2023-06-19T05:21:10;7.27;;;6.67;;
20865;SDS011;10593;48.398;10.698;2023-06-19T05:23:36;6.40;;;5.87;;
20865;SDS011;10593;48.398;10.698;2023-06-19T05:26:03;7.43;;;6.83;;
20865;SDS011;10593;48.398;10.698;2023-06-19T05:28:29;7.43;;;6.83;;
20865;SDS011;10593;48.398;10.698;2023-06-19T05:30:55;7.10;;;6.60;;
20865;SDS011;10593;48.398;10.698;2023-06-19T05:33:21;6.93;;;6.43;;
20865;SDS011;10593;48.398;10.698;2023-06-19T05:35:48;7.40;;;6.80;;
20865;SDS011;10593;48.398;10.698;2023-06-19T05:38:17;7.60;;;7.00;;
20865;SDS011;10593;48.398;10.698;2023-06-19T05:40:43;7.07;;;6.37;;
20865;SDS011;10593;48.398;10.698;2023-06-19T05:43:09;6.80;;;6.30;;
20865;SDS011;10593;48.398;10.698;2023-06-19T05:45:35;7.07;;;6.40;;
20865;SDS011;10593;48.398;10.698;2023-06-19T05:48:00;6.83;;;6.23;;
20865;SDS011;10593;48.398;10.698;2023-06-19T05:50:26;5.67;;;5.27;;
20865;SDS011;10593;48.398;10.698;2023-06-19T05:52:52;6.73;;;5.50;;
20865;SDS011;10593;48.398;10.698;2023-06-19T05:55:17;5.40;;;4.97;;
20865;SDS011;10593;48.398;10.698;2023-06-19T05:57:43;6.00;;;5.40;;
20865;SDS011;10593;48.398;10.698;2023-06-19T06:00:09;5.90;;;5.50;;
20865;SDS011;10593;48.398;10.698;2023-06-19T06:02:39;6.07;;;5.57;;
20865;SDS011;10593;48.398;10.698;2023-06-19T06:05:05;5.77;;;5.27;;
20865;SDS011;10593;48.398;10.698;2023-06-19T06:07:33;6.20;;;5.50;;
20865;SDS011;10593;48.398;10.698;2023-06-19T06:09:59;4.97;;;4.57;;
20865;SDS011;10593;48.398;10.698;2023-06-19T06:12:25;5.73;;;5.23;;
20865;SDS011;10593;48.398;10.698;2023-06-19T06:14:51;5.30;;;4.83;;
20865;SDS011;10593;48.398;10.698;2023-06-19T06:17:16;4.50;;;4.17;;
20865;SDS011;10593;48.398;10.698;2023-06-19T06:19:42;5.27;;;4.87;;
20865;SDS011;10593;48.398;10.698;2023-06-19T06:22:08;4.73;;;4.37;;
20865;SDS011;10593;48.398;10.698;2023-06-19T06:24:33;4.77;;;4.37;;
20865;SDS011;10593;48.398;10.698;2023-06-19T06:26:59;5.07;;;4.67;;
20865;SDS011;10593;48.398;10.698;2023-06-19T06:29:25;4.30;;;4.00;;
20865;SDS011;10593;48.398;10.698;2023-06-19T06:31:50;5.20;;;4.70;;
20865;SDS011;10593;48.398;10.698;2023-06-19T06:34:19;4.30;;;3.90;;
20865;SDS011;10593;48.398;10.698;2023-06-19T06:36:44;4.37;;;4.07;;
20865;SDS011;10593;48.398;10.698;2023-06-19T06:39:10;4.17;;;3.87;;
20865;SDS011;10593;48.398;10.698;2023-06-19T06:41:36;4.10;;;3.80;;
20865;SDS011;10593;48.398;10.698;2023-06-19T06:44:02;3.43;;;3.23;;
20865;SDS011;10593;48.398;10.698;2023-06-19T06:46:29;4.10;;;3.60;;
20865;SDS011;10593;48.398;10.698;2023-06-19T06:48:54;4.00;;;3.70;;
20865;SDS011;10593;48.398;10.698;2023-06-19T06:51:20;3.73;;;3.53;;
20865;SDS011;10593;48.398;10.698;2023-06-19T06:53:47;4.00;;;3.70;;
20865;SDS011;10593;48.398;10.698;2023-06-19T06:56:13;3.90;;;3.60;;
20865;SDS011;10593;48.398;10.698;2023-06-19T06:58:39;3.67;;;3.47;;
20865;SDS011;10593;48.398;10.698;2023-06-19T07:01:04;3.80;;;3.50;;
20865;SDS011;10593;48.398;10.698;2023-06-19T07:03:30;3.87;;;3.57;;
20865;SDS011;10593;48.398;10.698;2023-06-19T07:05:57;4.23;;;3.83;;
20865;SDS011;10593;48.398;10.698;2023-06-19T07:08:23;3.83;;;3.53;;
20865;SDS011;10593;48.398;10.698;2023-06-19T07:10:48;3.47;;;3.17;;
20865;SDS011;10593;48.398;10.698;2023-06-19T07:13:14;4.60;;;3.13;;
20865;SDS011;10593;48.398;10.698;2023-06-19T07:15:40;4.10;;;3.80;;
20865;SDS011;10593;48.398;10.698;2023-06-19T07:18:05;3.50;;;3.30;;
20865;SDS011;10593;48.398;10.698;2023-06-19T07:20:31;4.07;;;3.63;;
20865;SDS011;10593;48.398;10.698;2023-06-19T07:22:57;4.10;;;3.70;;
20865;SDS011;10593;48.398;10.698;2023-06-19T07:25:23;4.30;;;4.00;;
20865;SDS011;10593;48.398;10.698;2023-06-19T07:27:50;3.77;;;3.47;;
20865;SDS011;10593;48.398;10.698;2023-06-19T07:30:16;3.50;;;3.30;;
20865;SDS011;10593;48.398;10.698;2023-06-19T07:32:42;3.60;;;3.40;;
20865;SDS011;10593;48.398;10.698;2023-06-19T07:35:07;3.60;;;3.30;;
20865;SDS011;10593;48.398;10.698;2023-06-19T07:37:33;3.40;;;3.10;;
20865;SDS011;10593;48.398;10.698;2023-06-19T07:39:59;4.50;;;3.23;;
20865;SDS011;10593;48.398;10.698;2023-06-19T07:42:25;4.03;;;3.73;;
20865;SDS011;10593;48.398;10.698;2023-06-19T07:44:51;3.73;;;3.50;;
20865;SDS011;10593;48.398;10.698;2023-06-19T07:47:17;3.37;;;3.10;;
20865;SDS011;10593;48.398;10.698;2023-06-19T07:49:43;3.53;;;3.23;;
20865;SDS011;10593;48.398;10.698;2023-06-19T07:52:10;3.60;;;3.30;;
20865;SDS011;10593;48.398;10.698;2023-06-19T07:54:36;3.63;;;3.33;;
20865;SDS011;10593;48.398;10.698;2023-06-19T07:57:12;4.03;;;3.43;;
20865;SDS011;10593;48.398;10.698;2023-06-19T07:59:37;3.17;;;2.97;;
20865;SDS011;10593;48.398;10.698;2023-06-19T08:02:03;3.23;;;3.03;;
20865;SDS011;10593;48.398;10.698;2023-06-19T08:04:29;3.50;;;3.20;;
20865;SDS011;10593;48.398;10.698;2023-06-19T08:06:54;3.97;;;3.67;;
20865;SDS011;10593;48.398;10.698;2023-06-19T08:09:20;3.60;;;3.40;;
20865;SDS011;10593;48.398;10.698;2023-06-19T08:11:46;4.77;;;3.90;;
20865;SDS011;10593;48.398;10.698;2023-06-19T08:14:11;4.20;;;3.90;;
20865;SDS011;10593;48.398;10.698;2023-06-19T08:16:37;4.27;;;3.87;;
20865;SDS011;10593;48.398;10.698;2023-06-19T08:19:03;4.07;;;3.60;;
20865;SDS011;10593;48.398;10.698;2023-06-19T08:21:29;3.80;;;3.50;;
20865;SDS011;10593;48.398;10.698;2023-06-19T08:23:55;4.00;;;3.70;;
20865;SDS011;10593;48.398;10.698;2023-06-19T08:26:20;4.00;;;3.67;;
20865;SDS011;10593;48.398;10.698;2023-06-19T08:28:46;4.03;;;3.63;;
20865;SDS011;10593;48.398;10.698;2023-06-19T08:31:12;3.43;;;3.23;;
20865;SDS011;10593;48.398;10.698;2023-06-19T08:33:38;3.50;;;3.30;;
20865;SDS011;10593;48.398;10.698;2023-06-19T08:36:04;3.83;;;3.53;;
20865;SDS011;10593;48.398;10.698;2023-06-19T08:38:30;3.83;;;3.53;;
20865;SDS011;10593;48.398;10.698;2023-06-19T08:40:55;3.87;;;3.60;;
20865;SDS011;10593;48.398;10.698;2023-06-19T08:43:21;3.67;;;3.47;;
20865;SDS011;10593;48.398;10.698;2023-06-19T08:45:59;3.97;;;3.67;;
20865;SDS011;10593;48.398;10.698;2023-06-19T08:48:36;4.17;;;3.80;;
20865;SDS011;10593;48.398;10.698;2023-06-19T08:51:03;4.30;;;3.90;;
20865;SDS011;10593;48.398;10.698;2023-06-19T08:53:31;4.53;;;4.13;;
20865;SDS011;10593;48.398;10.698;2023-06-19T08:56:02;3.70;;;3.50;;
20865;SDS011;10593;48.398;10.698;2023-06-19T08:58:28;3.77;;;3.47;;
20865;SDS011;10593;48.398;10.698;2023-06-19T09:00:54;4.03;;;3.73;;
20865;SDS011;10593;48.398;10.698;2023-06-19T09:03:23;3.80;;;3.60;;
20865;SDS011;10593;48.398;10.698;2023-06-19T09:05:48;4.93;;;3.53;;
20865;SDS011;10593;48.398;10.698;2023-06-19T09:08:16;3.23;;;3.03;;
20865;SDS011;10593;48.398;10.698;2023-06-19T09:10:54;3.80;;;3.50;;
20865;SDS011;10593;48.398;10.698;2023-06-19T09:13:24;3.70;;;3.40;;
20865;SDS011;10593;48.398;10.698;2023-06-19T09:15:57;3.97;;;3.67;;
20865;SDS011;10593;48.398;10.698;2023-06-19T09:18:25;3.27;;;3.07;;
20865;SDS011;10593;48.398;10.698;2023-06-19T09:20:54;3.90;;;3.47;;
20865;SDS011;10593;48.398;10.698;2023-06-19T09:23:20;3.43;;;3.23;;
20865;SDS011;10593;48.398;10.698;2023-06-19T09:25:46;3.23;;;3.03;;
20865;SDS011;10593;48.398;10.698;2023-06-19T09:28:26;3.33;;;3.13;;
20865;SDS011;10593;48.398;10.698;2023-06-19T09:30:53;3.73;;;3.33;;
20865;SDS011;10593;48.398;10.698;2023-06-19T09:33:25;3.57;;;3.27;;
20865;SDS011;10593;48.398;10.698;2023-06-19T09:35:53;3.83;;;3.47;;
20865;SDS011;10593;48.398;10.698;2023-06-19T09:38:22;3.20;;;3.00;;
20865;SDS011;10593;48.398;10.698;2023-06-19T09:40:53;4.20;;;3.87;;
20865;SDS011;10593;48.398;10.698;2023-06-19T09:43:25;3.40;;;3.20;;
20865;SDS011;10593;48.398;10.698;2023-06-19T09:45:59;3.20;;;3.00;;
20865;SDS011;10593;48.398;10.698;2023-06-19T09:48:28;3.20;;;3.00;;
20865;SDS011;10593;48.398;10.698;2023-06-19T09:50:59;3.80;;;2.70;;
20865;SDS011;10593;48.398;10.698;2023-06-19T09:53:45;3.17;;;2.97;;
20865;SDS011;10593;48.398;10.698;2023-06-19T09:56:12;3.20;;;3.00;;
20865;SDS011;10593;48.398;10.698;2023-06-19T09:58:40;3.10;;;2.90;;
20865;SDS011;10593;48.398;10.698;2023-06-19T10:01:08;2.47;;;2.37;;
20865;SDS011;10593;48.398;10.698;2023-06-19T10:03:34;2.40;;;2.30;;
20865;SDS011;10593;48.398;10.698;2023-06-19T10:06:02;2.40;;;2.20;;
20865;SDS011;10593;48.398;10.698;2023-06-19T10:08:40;2.77;;;2.63;;
20865;SDS011;10593;48.398;10.698;2023-06-19T10:11:07;2.90;;;2.70;;
20865;SDS011;10593;48.398;10.698;2023-06-19T10:13:34;2.80;;;2.70;;
20865;SDS011;10593;48.398;10.698;2023-06-19T10:16:04;2.90;;;2.70;;
20865;SDS011;10593;48.398;10.698;2023-06-19T10:18:31;3.17;;;2.87;;
20865;SDS011;10593;48.398;10.698;2023-06-19T10:21:15;2.93;;;2.77;;
20865;SDS011;10593;48.398;10.698;2023-06-19T10:23:57;2.60;;;2.50;;
20865;SDS011;10593;48.398;10.698;2023-06-19T10:26:31;3.23;;;2.70;;
20865;SDS011;10593;48.398;10.698;2023-06-19T10:28:57;2.93;;;2.40;;
20865;SDS011;10593;48.398;10.698;2023-06-19T10:31:23;2.73;;;2.53;;
20865;SDS011;10593;48.398;10.698;2023-06-19T10:33:49;3.00;;;2.40;;
20865;SDS011;10593;48.398;10.698;2023-06-19T10:36:15;2.63;;;2.50;;
20865;SDS011;10593;48.398;10.698;2023-06-19T10:38:50;2.27;;;2.17;;
20865;SDS011;10593;48.398;10.698;2023-06-19T10:41:17;2.97;;;2.57;;
20865;SDS011;10593;48.398;10.698;2023-06-19T10:46:37;2.50;;;2.30;;
20865;SDS011;10593;48.398;10.698;2023-06-19T10:49:04;2.53;;;2.43;;
20865;SDS011;10593;48.398;10.698;2023-06-19T10:51:35;2.23;;;2.13;;
20865;SDS011;10593;48.398;10.698;2023-06-19T10:54:03;2.60;;;2.40;;
20865;SDS011;10593;48.398;10.698;2023-06-19T10:56:29;2.23;;;2.13;;
20865;SDS011;10593;48.398;10.698;2023-06-19T10:58:59;2.57;;;2.47;;
20865;SDS011;10593;48.398;10.698;2023-06-19T11:01:37;2.47;;;2.37;;
20865;SDS011;10593;48.398;10.698;2023-06-19T11:04:09;2.23;;;2.10;;
20865;SDS011;10593;48.398;10.698;2023-06-19T11:06:37;2.20;;;2.10;;
20865;SDS011;10593;48.398;10.698;2023-06-19T11:09:06;2.23;;;2.13;;
20865;SDS011;10593;48.398;10.698;2023-06-19T11:11:41;2.60;;;2.37;;
20865;SDS011;10593;48.398;10.698;2023-06-19T11:14:10;2.20;;;2.10;;
20865;SDS011;10593;48.398;10.698;2023-06-19T11:16:38;2.03;;;1.93;;
20865;SDS011;10593;48.398;10.698;2023-06-19T11:19:15;2.50;;;2.40;;
20865;SDS011;10593;48.398;10.698;2023-06-19T11:21:47;2.07;;;1.97;;
20865;SDS011;10593;48.398;10.698;2023-06-19T11:24:15;2.77;;;2.57;;
20865;SDS011;10593;48.398;10.698;2023-06-19T11:26:42;2.23;;;2.10;;
20865;SDS011;10593;48.398;10.698;2023-06-19T11:29:15;2.27;;;2.17;;
20865;SDS011;10593;48.398;10.698;2023-06-19T11:31:45;3.07;;;2.77;;
20865;SDS011;10593;48.398;10.698;2023-06-19T11:34:13;2.10;;;2.00;;
20865;SDS011;10593;48.398;10.698;2023-06-19T11:36:40;2.13;;;2.00;;
20865;SDS011;10593;48.398;10.698;2023-06-19T11:39:14;2.07;;;1.97;;
20865;SDS011;10593;48.398;10.698;2023-06-19T11:41:41;2.33;;;2.13;;
20865;SDS011;10593;48.398;10.698;2023-06-19T11:44:09;2.10;;;2.00;;
20865;SDS011;10593;48.398;10.698;2023-06-19T11:46:35;2.40;;;2.23;;
20865;SDS011;10593;48.398;10.698;2023-06-19T11:49:34;2.00;;;1.90;;
20865;SDS011;10593;48.398;10.698;2023-06-19T11:52:00;2.23;;;2.13;;
20865;SDS011;10593;48.398;10.698;2023-06-19T11:54:26;2.70;;;2.50;;
20865;SDS011;10593;48.398;10.698;2023-06-19T11:56:51;2.50;;;2.30;;
20865;SDS011;10593;48.398;10.698;2023-06-19T11:59:17;3.90;;;2.30;;
20865;SDS011;10593;48.398;10.698;2023-06-19T12:01:43;2.90;;;2.63;;
20865;SDS011;10593;48.398;10.698;2023-06-19T12:04:08;2.57;;;2.47;;
20865;SDS011;10593;48.398;10.698;2023-06-19T12:06:34;2.50;;;2.30;;
20865;SDS011;10593;48.398;10.698;2023-06-19T12:09:03;2.43;;;2.33;;
20865;SDS011;10593;48.398;10.698;2023-06-19T12:11:31;2.10;;;2.00;;
20865;SDS011;10593;48.398;10.698;2023-06-19T12:13:57;2.30;;;2.10;;
20865;SDS011;10593;48.398;10.698;2023-06-19T12:16:22;2.30;;;2.20;;
20865;SDS011;10593;48.398;10.698;2023-06-19T12:18:48;2.60;;;2.50;;
20865;SDS011;10593;48.398;10.698;2023-06-19T12:21:14;2.27;;;2.17;;
20865;SDS011;10593;48.398;10.698;2023-06-19T12:23:39;2.50;;;2.30;;
20865;SDS011;10593;48.398;10.698;2023-06-19T12:26:05;2.57;;;2.37;;
20865;SDS011;10593;48.398;10.698;2023-06-19T12:28:31;2.30;;;2.20;;
20865;SDS011;10593;48.398;10.698;2023-06-19T12:30:56;2.17;;;2.03;;
20865;SDS011;10593;48.398;10.698;2023-06-19T12:33:23;3.77;;;2.20;;
20865;SDS011;10593;48.398;10.698;2023-06-19T12:35:49;2.50;;;2.30;;
20865;SDS011;10593;48.398;10.698;2023-06-19T12:38:15;2.17;;;2.07;;
20865;SDS011;10593;48.398;10.698;2023-06-19T12:40:40;2.20;;;2.10;;
20865;SDS011;10593;48.398;10.698;2023-06-19T12:43:06;2.27;;;2.07;;
20865;SDS011;10593;48.398;10.698;2023-06-19T12:45:32;2.57;;;2.20;;
20865;SDS011;10593;48.398;10.698;2023-06-19T12:47:58;3.70;;;2.50;;
20865;SDS011;10593;48.398;10.698;2023-06-19T12:50:24;2.40;;;2.20;;
20865;SDS011;10593;48.398;10.698;2023-06-19T12:52:50;2.43;;;2.33;;
20865;SDS011;10593;48.398;10.698;2023-06-19T12:55:16;2.00;;;1.90;;
20865;SDS011;10593;48.398;10.698;2023-06-19T12:57:42;2.10;;;2.00;;
20865;SDS011;10593;48.398;10.698;2023-06-19T13:00:09;2.07;;;1.90;;
20865;SDS011;10593;48.398;10.698;2023-06-19T13:02:40;2.00;;;1.90;;
20865;SDS011;10593;48.398;10.698;2023-06-19T13:05:08;2.13;;;2.03;;
20865;SDS011;10593;48.398;10.698;2023-06-19T13:07:34;2.28;;;1.88;;
20865;SDS011;10593;48.398;10.698;2023-06-19T13:10:00;3.73;;;2.10;;
20865;SDS011;10593;48.398;10.698;2023-06-19T13:12:25;2.30;;;2.20;;
20865;SDS011;10593;48.398;10.698;2023-06-19T13:14:51;2.23;;;2.03;;
20865;SDS011;10593;48.398;10.698;2023-06-19T13:17:17;2.40;;;2.23;;
20865;SDS011;10593;48.398;10.698;2023-06-19T13:19:44;1.85;;;1.75;;
20865;SDS011;10593;48.398;10.698;2023-06-19T13:22:09;2.30;;;2.10;;
20865;SDS011;10593;48.398;10.698;2023-06-19T13:24:35;1.80;;;1.70;;
20865;SDS011;10593;48.398;10.698;2023-06-19T13:27:01;1.63;;;1.57;;
20865;SDS011;10593;48.398;10.698;2023-06-19T13:29:27;2.17;;;1.73;;
20865;SDS011;10593;48.398;10.698;2023-06-19T13:31:53;1.90;;;1.77;;
20865;SDS011;10593;48.398;10.698;2023-06-19T13:34:18;1.63;;;1.60;;
20865;SDS011;10593;48.398;10.698;2023-06-19T13:36:46;2.38;;;2.00;;
20865;SDS011;10593;48.398;10.698;2023-06-19T13:39:12;2.90;;;1.80;;
20865;SDS011;10593;48.398;10.698;2023-06-19T13:41:38;2.27;;;2.00;;
20865;SDS011;10593;48.398;10.698;2023-06-19T13:44:04;2.10;;;2.00;;
20865;SDS011;10593;48.398;10.698;2023-06-19T13:46:30;2.00;;;1.90;;
20865;SDS011;10593;48.398;10.698;2023-06-19T13:48:57;2.00;;;1.90;;
20865;SDS011;10593;48.398;10.698;2023-06-19T13:51:23;1.93;;;1.83;;
20865;SDS011;10593;48.398;10.698;2023-06-19T13:53:49;2.00;;;1.90;;
20865;SDS011;10593;48.398;10.698;2023-06-19T13:56:16;2.37;;;2.17;;
20865;SDS011;10593;48.398;10.698;2023-06-19T13:58:42;3.07;;;2.00;;
20865;SDS011;10593;48.398;10.698;2023-06-19T14:01:08;2.10;;;2.00;;
20865;SDS011;10593;48.398;10.698;2023-06-19T14:03:36;2.00;;;1.90;;
20865;SDS011;10593;48.398;10.698;2023-06-19T14:06:06;2.10;;;2.00;;
20865;SDS011;10593;48.398;10.698;2023-06-19T14:08:32;2.30;;;2.20;;
20865;SDS011;10593;48.398;10.698;2023-06-19T14:10:58;1.97;;;1.87;;
20865;SDS011;10593;48.398;10.698;2023-06-19T14:13:24;2.30;;;2.20;;
20865;SDS011;10593;48.398;10.698;2023-06-19T14:15:49;1.98;;;1.88;;
20865;SDS011;10593;48.398;10.698;2023-06-19T14:18:16;2.00;;;1.90;;
20865;SDS011;10593;48.398;10.698;2023-06-19T14:20:41;2.40;;;2.30;;
20865;SDS011;10593;48.398;10.698;2023-06-19T14:23:07;2.10;;;2.00;;
20865;SDS011;10593;48.398;10.698;2023-06-19T14:25:33;2.00;;;1.90;;
20865;SDS011;10593;48.398;10.698;2023-06-19T14:27:59;2.33;;;2.22;;
20865;SDS011;10593;48.398;10.698;2023-06-19T14:30:25;1.83;;;1.73;;
20865;SDS011;10593;48.398;10.698;2023-06-19T14:32:51;1.83;;;1.73;;
20865;SDS011;10593;48.398;10.698;2023-06-19T14:35:17;2.15;;;2.05;;
20865;SDS011;10593;48.398;10.698;2023-06-19T14:37:43;2.03;;;1.93;;
20865;SDS011;10593;48.398;10.698;2023-06-19T14:40:09;2.38;;;1.90;;
20865;SDS011;10593;48.398;10.698;2023-06-19T14:42:35;2.47;;;2.38;;